createdAt,value
2023-05-16T00:00:39.341Z,17.43
2023-05-16T00:03:07.793Z,18.00
2023-05-16T00:05:36.184Z,18.47
2023-05-16T00:08:04.043Z,17.63
2023-05-16T00:10:33.428Z,17.67
2023-05-16T00:13:02.077Z,18.23
2023-05-16T00:15:30.828Z,17.70
2023-05-16T00:17:59.738Z,17.50
2023-05-16T00:20:28.740Z,18.10
2023-05-16T00:23:01.234Z,18.50
2023-05-16T00:25:29.710Z,19.47
2023-05-16T00:28:00.520Z,18.70
2023-05-16T00:30:28.809Z,18.80
2023-05-16T00:32:57.113Z,18.50
2023-05-16T00:35:25.151Z,18.20
2023-05-16T00:37:53.165Z,20.07
2023-05-16T00:40:21.713Z,19.03
2023-05-16T00:42:49.767Z,18.53
2023-05-16T00:45:19.189Z,19.47
2023-05-16T00:47:47.096Z,19.17
2023-05-16T00:50:15.152Z,18.63
2023-05-16T00:52:43.807Z,18.43
2023-05-16T00:55:11.910Z,18.73
2023-05-16T00:57:40.691Z,17.77
2023-05-16T01:00:10.823Z,19.07
2023-05-16T01:02:40.282Z,18.33
2023-05-16T01:05:09.458Z,18.70
2023-05-16T01:07:37.564Z,18.97
2023-05-16T01:10:07.999Z,18.00
2023-05-16T01:12:43.042Z,18.10
2023-05-16T01:15:14.450Z,17.37
2023-05-16T01:17:54.868Z,17.97
2023-05-16T01:20:33.621Z,16.70
2023-05-16T01:23:15.172Z,17.20
2023-05-16T01:25:57.730Z,17.07
2023-05-16T01:28:28.562Z,17.73
2023-05-16T01:30:56.529Z,17.10
2023-05-16T01:33:24.629Z,17.10
2023-05-16T01:36:00.764Z,17.23
2023-05-16T01:38:34.848Z,17.17
2023-05-16T01:41:09.817Z,17.23
2023-05-16T01:43:45.429Z,17.07
2023-05-16T01:46:16.855Z,17.23
2023-05-16T01:48:52.612Z,17.23
2023-05-16T01:51:23.955Z,16.73
2023-05-16T01:53:53.668Z,16.93
2023-05-16T01:56:23.015Z,16.20
2023-05-16T01:58:54.227Z,16.73
2023-05-16T02:01:22.244Z,16.83
2023-05-16T02:03:51.205Z,16.97
2023-05-16T02:06:19.272Z,16.97
2023-05-16T02:08:47.201Z,17.60
2023-05-16T02:11:15.153Z,17.00
2023-05-16T02:13:43.145Z,17.10
2023-05-16T02:16:13.468Z,17.10
2023-05-16T02:18:41.555Z,17.03
2023-05-16T02:21:09.717Z,16.90
2023-05-16T02:23:37.643Z,16.43
2023-05-16T02:26:05.766Z,16.83
2023-05-16T02:28:33.858Z,16.50
2023-05-16T02:31:02.475Z,17.13
2023-05-16T02:33:31.875Z,17.13
2023-05-16T02:35:59.851Z,15.67
2023-05-16T02:38:27.830Z,15.37
2023-05-16T02:40:56.326Z,17.97
2023-05-16T02:43:24.269Z,15.27
2023-05-16T02:45:53.214Z,15.00
2023-05-16T02:48:21.344Z,14.90
2023-05-16T02:50:50.830Z,15.13
2023-05-16T02:53:18.760Z,14.33
2023-05-16T02:55:47.115Z,15.03
2023-05-16T02:58:15.254Z,15.03
2023-05-16T03:00:43.231Z,15.63
2023-05-16T03:03:11.292Z,15.10
2023-05-16T03:05:39.383Z,15.50
2023-05-16T03:08:08.767Z,16.00
2023-05-16T03:10:36.755Z,15.03
2023-05-16T03:13:04.753Z,15.80
2023-05-16T03:15:51.317Z,15.53
2023-05-16T03:18:19.267Z,15.80
2023-05-16T03:20:47.386Z,15.40
2023-05-16T03:23:16.746Z,15.67
2023-05-16T03:25:46.339Z,16.23
2023-05-16T03:28:15.467Z,14.47
2023-05-16T03:30:43.657Z,15.27
2023-05-16T03:33:12.566Z,15.50
2023-05-16T03:35:41.104Z,15.50
2023-05-16T03:38:09.318Z,15.13
2023-05-16T03:40:39.222Z,15.50
2023-05-16T03:43:07.213Z,15.80
2023-05-16T03:45:35.378Z,15.83
2023-05-16T03:48:03.363Z,16.03
2023-05-16T03:50:31.342Z,17.00
2023-05-16T03:52:59.543Z,16.27
2023-05-16T03:55:27.616Z,17.67
2023-05-16T03:57:56.957Z,17.20
2023-05-16T04:00:24.903Z,18.07
2023-05-16T04:02:53.235Z,16.33
2023-05-16T04:05:21.629Z,16.57
2023-05-16T04:07:49.658Z,15.17
2023-05-16T04:10:17.636Z,15.30
2023-05-16T04:12:46.113Z,14.20
2023-05-16T04:15:15.846Z,15.57
2023-05-16T04:17:43.863Z,18.53
2023-05-16T04:20:12.743Z,17.33
2023-05-16T04:22:40.743Z,17.43
2023-05-16T04:25:09.496Z,16.50
2023-05-16T04:27:37.678Z,16.70
2023-05-16T04:30:06.591Z,17.20
2023-05-16T04:32:37.009Z,18.03
2023-05-16T04:35:05.180Z,17.53
2023-05-16T04:37:33.142Z,16.90
2023-05-16T04:40:01.145Z,17.87
2023-05-16T04:42:29.102Z,16.67
2023-05-16T04:44:57.473Z,17.57
2023-05-16T04:47:27.888Z,18.23
2023-05-16T04:49:57.711Z,17.50
2023-05-16T04:52:25.745Z,19.27
2023-05-16T04:54:53.620Z,17.60
2023-05-16T04:57:21.668Z,17.07
2023-05-16T04:59:49.686Z,19.33
2023-05-16T05:02:17.853Z,18.83
2023-05-16T05:04:45.965Z,17.97
2023-05-16T05:07:16.045Z,18.83
2023-05-16T05:09:44.084Z,21.40
2023-05-16T05:12:12.646Z,21.97
2023-05-16T05:14:40.578Z,22.70
2023-05-16T05:17:08.891Z,23.30
2023-05-16T05:19:37.242Z,23.53
2023-05-16T05:22:05.341Z,21.70
2023-05-16T05:24:34.746Z,19.50
2023-05-16T05:27:03.127Z,17.43
2023-05-16T05:29:31.022Z,16.00
2023-05-16T05:31:59.023Z,16.90
2023-05-16T05:34:27.007Z,17.30
2023-05-16T05:36:55.030Z,17.20
2023-05-16T05:39:24.458Z,17.57
2023-05-16T05:41:53.812Z,16.67
2023-05-16T05:44:21.794Z,16.10
2023-05-16T05:46:49.864Z,16.10
2023-05-16T05:49:18.040Z,16.87
2023-05-16T05:51:46.059Z,17.90
2023-05-16T05:54:14.045Z,18.97
2023-05-16T05:56:42.105Z,17.23
2023-05-16T05:59:11.606Z,16.97
2023-05-16T06:01:40.327Z,15.83
2023-05-16T06:04:08.349Z,16.23
2023-05-16T06:06:36.573Z,15.80
2023-05-16T06:09:05.069Z,14.87
2023-05-16T06:11:33.158Z,13.63
2023-05-16T06:14:01.162Z,13.13
2023-05-16T06:16:30.589Z,13.57
2023-05-16T06:18:58.696Z,13.43
2023-05-16T06:21:26.710Z,15.50
2023-05-16T06:23:54.705Z,14.33
2023-05-16T06:26:22.824Z,15.03
2023-05-16T06:28:50.855Z,15.10
2023-05-16T06:31:18.934Z,14.13
2023-05-16T06:33:48.330Z,13.97
2023-05-16T06:36:16.310Z,13.63
2023-05-16T06:38:44.387Z,13.30
2023-05-16T06:41:12.325Z,14.13
2023-05-16T06:43:41.388Z,14.40
2023-05-16T06:46:09.603Z,15.83
2023-05-16T06:48:37.579Z,14.97
2023-05-16T06:51:07.235Z,15.20
2023-05-16T06:53:35.232Z,14.60
2023-05-16T06:56:03.369Z,14.23
2023-05-16T06:58:31.545Z,13.97
2023-05-16T07:00:59.632Z,14.33
2023-05-16T07:03:27.855Z,15.33
2023-05-16T07:05:55.916Z,16.43
2023-05-16T07:08:25.800Z,16.27
2023-05-16T07:10:53.870Z,16.73
2023-05-16T07:13:22.296Z,20.37
2023-05-16T07:15:50.259Z,20.47
2023-05-16T07:18:18.314Z,18.60
2023-05-16T07:20:46.822Z,17.80
2023-05-16T07:23:14.849Z,14.40
2023-05-16T07:25:44.464Z,13.27
2023-05-16T07:28:12.503Z,14.80
2023-05-16T07:30:40.578Z,18.50
2023-05-16T07:33:08.601Z,17.20
2023-05-16T07:35:36.625Z,14.73
2023-05-16T07:38:04.765Z,12.77
2023-05-16T07:40:32.833Z,12.73
2023-05-16T07:43:02.889Z,11.67
2023-05-16T07:45:31.137Z,13.17
2023-05-16T07:48:00.214Z,12.20
2023-05-16T07:50:28.259Z,13.00
2023-05-16T07:52:56.558Z,12.07
2023-05-16T07:55:24.721Z,12.60
2023-05-16T07:57:53.291Z,11.60
2023-05-16T08:00:23.498Z,12.13
2023-05-16T08:02:52.168Z,12.03
2023-05-16T08:05:20.514Z,11.37
2023-05-16T08:07:48.588Z,11.27
2023-05-16T08:10:16.751Z,11.40
2023-05-16T08:12:45.081Z,11.83
2023-05-16T08:15:13.249Z,12.47
2023-05-16T08:17:42.795Z,13.00
2023-05-16T08:20:12.231Z,13.33
2023-05-16T08:22:40.525Z,13.30
2023-05-16T08:25:09.855Z,14.13
2023-05-16T08:27:37.870Z,13.30
2023-05-16T08:30:08.037Z,12.67
2023-05-16T08:32:38.243Z,12.70
2023-05-16T08:35:08.997Z,13.40
2023-05-16T08:37:37.008Z,12.23
2023-05-16T08:40:08.443Z,12.70
2023-05-16T08:42:37.580Z,11.57
2023-05-16T08:45:06.835Z,10.80
2023-05-16T08:47:36.913Z,11.03
2023-05-16T08:50:05.706Z,11.50
2023-05-16T08:52:39.383Z,11.70
2023-05-16T08:55:12.099Z,12.50
2023-05-16T08:57:40.722Z,12.70
2023-05-16T09:00:13.124Z,12.30
2023-05-16T09:02:42.333Z,11.68
2023-05-16T09:05:13.422Z,11.38
2023-05-16T09:07:43.171Z,10.30
2023-05-16T09:10:12.293Z,9.98
2023-05-16T09:12:42.297Z,10.75
2023-05-16T09:15:11.829Z,10.35
2023-05-16T09:17:44.461Z,10.48
2023-05-16T09:20:15.104Z,10.00
2023-05-16T09:22:53.195Z,10.32
2023-05-16T09:25:30.183Z,10.55
2023-05-16T09:28:01.547Z,9.55
2023-05-16T09:30:31.884Z,10.45
2023-05-16T09:33:00.454Z,10.38
2023-05-16T09:38:01.050Z,10.85
2023-05-16T09:40:29.058Z,11.25
2023-05-16T09:43:06.952Z,10.93
2023-05-16T09:45:36.363Z,11.18
2023-05-16T09:48:07.387Z,10.55
2023-05-16T09:50:36.122Z,11.05
2023-05-16T09:53:06.051Z,11.02
2023-05-16T09:55:34.549Z,10.55
2023-05-16T09:58:02.493Z,10.48
2023-05-16T10:00:32.057Z,10.80
2023-05-16T10:03:04.776Z,10.23
2023-05-16T10:05:37.043Z,10.25
2023-05-16T10:08:07.556Z,10.48
2023-05-16T10:10:39.636Z,9.75
2023-05-16T10:13:09.457Z,9.63
2023-05-16T10:15:39.099Z,10.07
2023-05-16T10:18:12.254Z,10.27
2023-05-16T10:20:43.003Z,9.98
2023-05-16T10:23:18.793Z,9.70
2023-05-16T10:25:48.118Z,9.57
2023-05-16T10:28:17.220Z,10.60
2023-05-16T10:30:46.532Z,9.90
2023-05-16T10:33:15.918Z,10.07
2023-05-16T10:35:45.056Z,9.98
2023-05-16T10:38:16.334Z,9.95
2023-05-16T10:40:46.204Z,10.73
2023-05-16T10:43:24.795Z,9.77
2023-05-16T10:45:56.506Z,9.70
2023-05-16T10:48:50.432Z,10.10
2023-05-16T10:51:36.853Z,10.48
2023-05-16T10:54:11.365Z,10.43
2023-05-16T10:56:39.914Z,10.43
2023-05-16T10:59:24.271Z,10.65
2023-05-16T11:01:54.562Z,10.00
2023-05-16T11:04:22.789Z,9.57
2023-05-16T11:06:56.737Z,9.40
2023-05-16T11:09:28.309Z,9.45
2023-05-16T11:12:06.630Z,9.82
2023-05-16T11:14:42.578Z,10.38
2023-05-16T11:17:13.517Z,10.35
2023-05-16T11:19:44.188Z,9.63
2023-05-16T11:22:17.039Z,9.48
2023-05-16T11:24:58.445Z,9.88
2023-05-16T11:27:29.461Z,9.48
2023-05-16T11:30:03.263Z,9.52
2023-05-16T11:32:32.655Z,9.65
2023-05-16T11:35:00.808Z,9.68
2023-05-16T11:37:29.499Z,9.20
2023-05-16T11:40:02.632Z,8.60
2023-05-16T11:42:34.005Z,8.68
2023-05-16T11:45:09.242Z,10.43
2023-05-16T11:47:38.782Z,9.55
2023-05-16T11:50:08.029Z,9.07
2023-05-16T11:52:36.587Z,9.80
2023-05-16T11:55:11.224Z,9.68
2023-05-16T11:57:40.246Z,10.50
2023-05-16T12:00:16.977Z,10.38
2023-05-16T12:02:45.609Z,9.35
2023-05-16T12:05:14.680Z,9.32
2023-05-16T12:07:44.857Z,9.63
2023-05-16T12:10:16.958Z,9.50
2023-05-16T12:12:47.705Z,9.65
2023-05-16T12:15:16.442Z,9.00
2023-05-16T12:17:44.984Z,9.52
2023-05-16T12:20:14.667Z,9.13
2023-05-16T12:22:43.422Z,8.80
2023-05-16T12:25:27.928Z,8.90
2023-05-16T12:27:58.236Z,8.55
2023-05-16T12:30:27.880Z,8.43
2023-05-16T12:32:59.859Z,8.48
2023-05-16T12:35:32.288Z,9.07
2023-05-16T12:38:00.288Z,8.30
2023-05-16T12:40:31.507Z,9.48
2023-05-16T12:43:00.672Z,9.45
2023-05-16T12:45:29.097Z,9.10
2023-05-16T12:47:57.431Z,8.80
2023-05-16T12:50:29.286Z,9.07
2023-05-16T12:53:01.371Z,9.52
2023-05-16T12:55:31.013Z,9.40
2023-05-16T12:57:59.425Z,10.05
2023-05-16T13:00:28.060Z,9.43
2023-05-16T13:02:56.551Z,10.05
2023-05-16T13:05:24.604Z,10.43
2023-05-16T13:07:52.885Z,10.48
2023-05-16T13:10:21.301Z,9.93
2023-05-16T13:12:50.791Z,10.30
2023-05-16T13:15:19.276Z,9.95
2023-05-16T13:17:48.612Z,10.50
2023-05-16T13:20:17.524Z,9.75
2023-05-16T13:22:46.474Z,9.38
2023-05-16T13:25:14.564Z,10.07
2023-05-16T13:27:42.573Z,9.90
2023-05-16T13:30:12.667Z,10.05
2023-05-16T13:32:40.679Z,10.27
2023-05-16T13:35:09.823Z,10.73
2023-05-16T13:37:38.145Z,10.15
2023-05-16T13:40:10.468Z,10.80
2023-05-16T13:42:39.859Z,9.75
2023-05-16T13:45:09.073Z,10.63
2023-05-16T13:47:38.626Z,10.35
2023-05-16T13:50:10.304Z,10.50
2023-05-16T13:52:39.192Z,11.27
2023-05-16T13:55:08.635Z,10.38
2023-05-16T13:57:36.899Z,9.98
2023-05-16T14:00:35.364Z,9.27
2023-05-16T14:03:01.682Z,9.73
2023-05-16T14:05:29.755Z,10.32
2023-05-16T14:07:58.098Z,10.15
2023-05-16T14:10:26.692Z,10.00
2023-05-16T14:12:54.989Z,10.05
2023-05-16T14:15:22.982Z,10.57
2023-05-16T14:17:51.155Z,11.23
2023-05-16T14:20:20.745Z,11.88
2023-05-16T14:22:50.762Z,11.38
2023-05-16T14:25:18.867Z,11.52
2023-05-16T14:27:46.911Z,12.35
2023-05-16T14:30:15.242Z,12.98
2023-05-16T14:32:43.363Z,13.07
2023-05-16T14:35:11.797Z,11.80
2023-05-16T14:37:41.233Z,14.48
2023-05-16T14:40:10.936Z,14.13
2023-05-16T14:42:39.020Z,12.70
2023-05-16T14:45:08.005Z,14.32
2023-05-16T14:47:36.462Z,13.23
2023-05-16T14:50:04.961Z,13.45
2023-05-16T14:52:35.626Z,17.10
2023-05-16T14:55:06.217Z,14.65
2023-05-16T14:57:34.681Z,13.60
2023-05-16T15:00:02.671Z,12.73
2023-05-16T15:02:30.751Z,15.40
2023-05-16T15:04:59.023Z,17.98
2023-05-16T15:07:27.104Z,25.70
2023-05-16T15:09:55.753Z,18.80
2023-05-16T15:12:25.285Z,17.73
2023-05-16T15:14:53.209Z,18.15
2023-05-16T15:17:21.270Z,18.92
2023-05-16T15:19:50.535Z,19.48
2023-05-16T15:22:20.886Z,21.27
2023-05-16T15:24:49.036Z,19.90
2023-05-16T15:27:17.296Z,22.23
2023-05-16T15:29:49.673Z,18.85
2023-05-16T15:32:18.400Z,19.13
2023-05-16T15:34:46.593Z,19.80
2023-05-16T15:37:14.537Z,19.23
2023-05-16T15:39:42.663Z,19.60
2023-05-16T15:42:11.504Z,19.03
2023-05-16T15:44:40.027Z,16.07
2023-05-16T15:47:10.929Z,18.57
2023-05-16T15:49:39.370Z,16.67
2023-05-16T15:52:07.474Z,17.03
2023-05-16T15:54:35.778Z,16.83
2023-05-16T15:57:03.853Z,18.93
2023-05-16T15:59:32.132Z,20.35
2023-05-16T16:02:04.328Z,15.60
2023-05-16T16:04:34.197Z,14.87
2023-05-16T16:07:02.295Z,15.10
2023-05-16T16:09:30.501Z,16.80
2023-05-16T16:11:59.375Z,14.88
2023-05-16T16:14:27.544Z,14.05
2023-05-16T16:16:55.571Z,14.02
2023-05-16T16:19:23.774Z,15.03
2023-05-16T16:21:53.722Z,15.60
2023-05-16T16:24:21.745Z,12.37
2023-05-16T16:26:49.693Z,13.70
2023-05-16T16:29:17.863Z,12.57
2023-05-16T16:31:45.861Z,13.43
2023-05-16T16:34:13.842Z,14.17
2023-05-16T16:36:42.291Z,16.77
2023-05-16T16:39:12.016Z,15.83
2023-05-16T16:41:40.518Z,16.47
2023-05-16T16:44:08.642Z,16.43
2023-05-16T16:46:36.892Z,16.67
2023-05-16T16:49:05.465Z,16.87
2023-05-16T16:51:35.172Z,15.03
2023-05-16T16:54:03.258Z,17.03
2023-05-16T16:56:36.401Z,16.43
2023-05-16T16:59:04.458Z,17.27
2023-05-16T17:01:32.937Z,16.83
2023-05-16T17:04:02.163Z,15.70
2023-05-16T17:06:30.493Z,17.50
2023-05-16T17:09:02.509Z,18.23
2023-05-16T17:11:36.030Z,17.17
2023-05-16T17:14:06.344Z,16.37
2023-05-16T17:16:37.931Z,16.60
2023-05-16T17:19:06.227Z,15.97
2023-05-16T17:21:37.249Z,16.77
2023-05-16T17:24:07.000Z,16.60
2023-05-16T17:26:39.701Z,17.10
2023-05-16T17:29:10.488Z,17.87
2023-05-16T17:31:42.053Z,17.40
2023-05-16T17:34:11.427Z,17.63
2023-05-16T17:36:40.991Z,18.27
2023-05-16T17:39:10.642Z,16.27
2023-05-16T17:41:40.535Z,17.27
2023-05-16T17:44:09.459Z,17.63
2023-05-16T17:46:38.460Z,16.63
2023-05-16T17:49:07.541Z,17.63
2023-05-16T17:51:47.562Z,17.63
2023-05-16T17:54:16.120Z,18.23
2023-05-16T17:56:45.847Z,17.63
2023-05-16T17:59:15.146Z,19.47
2023-05-16T18:01:45.054Z,19.73
2023-05-16T18:04:14.567Z,19.53
2023-05-16T18:06:44.140Z,20.50
2023-05-16T18:09:15.081Z,21.20
2023-05-16T18:11:43.242Z,20.67
2023-05-16T18:14:15.586Z,22.40
2023-05-16T18:16:45.605Z,21.77
2023-05-16T18:19:13.785Z,22.40
2023-05-16T18:21:44.421Z,20.30
2023-05-16T18:24:13.533Z,19.50
2023-05-16T18:26:42.052Z,20.43
2023-05-16T18:29:10.970Z,19.50
2023-05-16T18:31:42.515Z,19.53
2023-05-16T18:34:12.070Z,20.00
2023-05-16T18:36:41.770Z,20.17
2023-05-16T18:39:10.798Z,20.70
2023-05-16T18:41:39.000Z,19.23
2023-05-16T18:44:07.282Z,18.40
2023-05-16T18:46:38.367Z,18.70
2023-05-16T18:49:08.375Z,18.80
2023-05-16T18:51:36.777Z,17.00
2023-05-16T18:54:05.800Z,15.53
2023-05-16T18:56:34.502Z,12.90
2023-05-16T18:59:03.078Z,14.67
2023-05-16T19:01:31.392Z,14.07
2023-05-16T19:03:59.605Z,14.00
2023-05-16T19:06:29.461Z,13.97
2023-05-16T19:08:58.053Z,14.27
2023-05-16T19:11:26.713Z,16.00
2023-05-16T19:13:55.085Z,16.93
2023-05-16T19:16:23.193Z,16.07
2023-05-16T19:18:51.981Z,15.17
2023-05-16T19:21:20.148Z,16.03
2023-05-16T19:23:50.121Z,16.27
2023-05-16T19:26:18.227Z,18.57
2023-05-16T19:28:46.381Z,16.63
2023-05-16T19:31:14.546Z,15.73
2023-05-16T19:33:42.729Z,14.53
2023-05-16T19:36:10.961Z,12.43
2023-05-16T19:38:39.268Z,11.63
2023-05-16T19:41:10.228Z,12.23
2023-05-16T19:43:38.791Z,12.33
2023-05-16T19:46:06.774Z,11.63
2023-05-16T19:48:37.137Z,11.47
2023-05-16T19:51:08.973Z,11.00
2023-05-16T19:53:37.524Z,12.17
2023-05-16T19:56:05.997Z,13.00
2023-05-16T19:58:35.525Z,12.57
2023-05-16T20:01:04.390Z,12.97
2023-05-16T20:03:32.713Z,13.87
2023-05-16T20:06:01.340Z,14.03
2023-05-16T20:08:33.095Z,12.50
2023-05-16T20:11:01.234Z,11.13
2023-05-16T20:13:30.544Z,10.37
2023-05-16T20:16:00.838Z,10.37
2023-05-16T20:18:31.931Z,11.30
2023-05-16T20:21:00.205Z,10.03
2023-05-16T20:23:30.077Z,10.30
2023-05-16T20:25:58.052Z,10.60
2023-05-16T20:28:26.050Z,10.80
2023-05-16T20:30:54.285Z,10.77
2023-05-16T20:33:23.811Z,11.43
2023-05-16T20:35:51.807Z,11.07
2023-05-16T20:38:19.733Z,10.87
2023-05-16T20:40:48.323Z,8.10
2023-05-16T20:43:16.357Z,8.47
2023-05-16T20:45:44.379Z,8.43
2023-05-16T20:48:14.203Z,8.30
2023-05-16T20:50:43.704Z,8.67
2023-05-16T20:53:11.681Z,8.93
2023-05-16T20:55:39.633Z,8.60
2023-05-16T20:58:07.642Z,8.83
2023-05-16T21:00:35.590Z,8.30
2023-05-16T21:03:03.822Z,9.10
2023-05-16T21:05:33.624Z,9.27
2023-05-16T21:08:03.120Z,19.17
2023-05-16T21:10:31.170Z,9.87
2023-05-16T21:12:59.269Z,8.33
2023-05-16T21:15:27.415Z,9.50
2023-05-16T21:17:55.781Z,8.80
2023-05-16T21:20:23.822Z,9.43
2023-05-16T21:22:51.821Z,12.37
2023-05-16T21:25:21.236Z,12.70
2023-05-16T21:27:49.238Z,10.53
2023-05-16T21:30:17.358Z,29.17
2023-05-16T21:32:45.383Z,15.60
2023-05-16T21:35:13.482Z,11.10
2023-05-16T21:37:41.492Z,9.30
2023-05-16T21:40:10.402Z,10.50
2023-05-16T21:42:39.793Z,10.13
2023-05-16T21:45:12.888Z,11.10
2023-05-16T21:47:41.018Z,10.27
2023-05-16T21:50:10.639Z,11.07
2023-05-16T21:52:39.980Z,11.70
2023-05-16T21:55:08.619Z,12.87
2023-05-16T21:57:36.581Z,12.83
2023-05-16T22:00:09.608Z,13.23
2023-05-16T22:02:38.249Z,13.10
2023-05-16T22:05:07.607Z,12.10
2023-05-16T22:07:35.836Z,11.50
2023-05-16T22:10:05.075Z,11.27
2023-05-16T22:12:33.101Z,11.10
2023-05-16T22:15:01.127Z,9.27
2023-05-16T22:17:30.693Z,9.80
2023-05-16T22:19:58.705Z,7.90
2023-05-16T22:22:26.670Z,7.00
2023-05-16T22:24:54.801Z,7.37
2023-05-16T22:27:22.801Z,6.67
2023-05-16T22:29:50.780Z,6.93
2023-05-16T22:32:18.850Z,7.80
2023-05-16T22:34:48.226Z,6.93
2023-05-16T22:37:16.317Z,7.20
2023-05-16T22:39:44.315Z,7.63
2023-05-16T22:42:12.854Z,7.07
2023-05-16T22:44:40.811Z,8.33
2023-05-16T22:47:08.801Z,8.03
2023-05-16T22:49:36.872Z,7.57
2023-05-16T22:52:06.836Z,7.70
2023-05-16T22:54:34.891Z,8.13
2023-05-16T22:57:02.845Z,7.90
2023-05-16T22:59:31.173Z,7.93
2023-05-16T23:01:59.223Z,8.47
2023-05-16T23:04:27.262Z,7.60
2023-05-16T23:06:55.200Z,7.80
2023-05-16T23:09:24.544Z,8.03
2023-05-16T23:11:52.574Z,7.53
2023-05-16T23:14:20.575Z,7.57
2023-05-16T23:16:48.687Z,7.47
2023-05-16T23:19:16.914Z,7.20
2023-05-16T23:21:45.068Z,6.87
2023-05-16T23:24:13.074Z,7.27
2023-05-16T23:26:42.391Z,6.93
2023-05-16T23:29:10.443Z,7.17
2023-05-16T23:31:38.551Z,7.40
2023-05-16T23:34:06.687Z,7.80
2023-05-16T23:36:34.669Z,7.37
2023-05-16T23:39:02.668Z,8.17
2023-05-16T23:41:31.159Z,7.33
2023-05-16T23:44:00.504Z,8.13
2023-05-16T23:46:28.543Z,8.13
2023-05-16T23:48:57.264Z,7.30
2023-05-16T23:51:25.431Z,7.97
2023-05-16T23:53:53.532Z,7.67
2023-05-16T23:56:21.502Z,8.30
2023-05-16T23:58:50.166Z,9.03
